Raymond, South Dakota
Current Conditions -  °F | °C
As of 4:53 PM on Wednesday 22 Oct 2014 (Local Time) from KATY Reporting Station
Overcast Overcast  
Wind Chill: 55°   Ceiling: 5500
Heat Index: 55°   Visibility: 10mi
Dew Point: 53°   Wind: 3mph
Humidity: 93%   Direction: 160°SSE
Pressure: 29.91"   Gusts: NA
Location:  44.91°N, 97.94°W
Report Text: KATY 222153Z AUTO 16003KT 10SM FEW043 OVC055 13/12 A2991 RMK AO2 RAE50 SLP131 P0009 T01280117
Loading
Personal Weather Stations






























Interactive Weather Map
Tropical Storm Tracking
New forecast layout! Learn more

10-Day Weather Forecast

Advertisements
Track Severe Weather on mobile